Time;durP1;ratioP1;P1;durP2;ratioP2;P2;SDS_P1;SDS_P2;PMS_P1;PMS_P2;Temp;Humidity;BMP_temperature;BMP_pressure;BME280_temperature;BME280_humidity;BME280_pressure;Samples;Min_cycle;Max_cycle;Signal;HPM_P1;HPM_P2
2022/01/02 00:00:13;;;;;;;17.77;9.73;;;;;;;9.95;84.43;95610.78;5075152;28;20154;-83
2022/01/02 00:02:40;;;;;;;17.57;9.80;;;;;;;9.86;83.86;95582.19;5075020;28;21060;-83
2022/01/02 00:05:11;;;;;;;13.33;9.20;;;;;;;9.76;83.95;95554.41;5056600;28;20169;-84
2022/01/02 00:07:57;;;;;;;14.87;8.87;;;;;;;10.16;83.90;95623.13;5074438;28;20170;-84
2022/01/02 00:10:24;;;;;;;12.00;7.70;;;;;;;10.05;84.16;95606.03;5074751;28;20170;-84
2022/01/02 00:12:58;;;;;;;11.70;7.43;;;;;;;10.22;83.88;95635.56;5074317;28;20158;-85
2022/01/02 00:15:24;;;;;;;13.50;7.97;;;;;;;10.10;83.49;95598.41;5074496;28;20185;-84
2022/01/02 00:17:52;;;;;;;12.63;7.47;;;;;;;10.23;83.46;95637.19;5056285;28;20176;-84
2022/01/02 00:20:31;;;;;;;12.67;7.23;;;;;;;9.99;83.35;95587.56;5073857;28;20226;-84
2022/01/02 00:23:02;;;;;;;9.50;6.83;;;;;;;10.22;83.28;95630.28;5074253;28;20185;-84
2022/01/02 00:25:33;;;;;;;13.37;8.00;;;;;;;10.01;83.24;95590.81;5074071;28;20155;-84
2022/01/02 00:27:59;;;;;;;11.27;7.50;;;;;;;10.28;83.27;95628.75;5074171;28;20155;-84
2022/01/02 00:30:25;;;;;;;12.13;7.40;;;;;;;10.00;83.04;95565.53;5073964;28;20193;-84
2022/01/02 00:32:51;;;;;;;13.17;7.60;;;;;;;9.99;82.91;95559.44;5073972;28;20177;-84
2022/01/02 00:35:16;;;;;;;10.90;7.03;;;;;;;10.40;82.51;95625.38;5074139;28;20638;-84
2022/01/02 00:38:02;;;;;;;14.10;7.60;;;;;;;10.31;82.27;95608.09;5058784;28;20182;-84
2022/01/02 00:40:31;;;;;;;12.23;7.67;;;;;;;10.47;82.10;95618.34;5073312;28;20182;-84
2022/01/02 00:43:04;;;;;;;11.37;6.97;;;;;;;10.50;82.28;95628.50;5073428;28;20209;-85
2022/01/02 00:45:35;;;;;;;12.77;7.10;;;;;;;10.21;81.88;95582.09;5073372;28;20265;-84
2022/01/02 00:48:19;;;;;;;12.53;7.33;;;;;;;10.54;81.52;95623.69;5055443;28;20643;-84
2022/01/02 00:50:56;;;;;;;13.50;7.17;;;;;;;10.52;81.95;95631.75;5073575;28;20189;-84
2022/01/02 00:53:25;;;;;;;10.93;6.83;;;;;;;10.19;81.86;95570.97;5073163;28;20185;-85
2022/01/02 00:55:56;;;;;;;9.03;7.13;;;;;;;10.49;82.07;95628.69;5073193;28;20202;-84
2022/01/02 00:58:35;;;;;;;11.37;6.87;;;;;;;10.31;82.03;95591.50;5073358;28;20182;-84
2022/01/02 01:01:04;;;;;;;12.00;6.77;;;;;;;10.25;81.58;95572.03;5088639;28;20166;-84
2022/01/02 01:03:30;;;;;;;12.00;6.97;;;;;;;10.42;81.23;95612.84;5073347;28;20232;-84
2022/01/02 01:05:57;;;;;;;15.90;9.00;;;;;;;10.11;81.71;95584.25;5073878;28;20204;-84
2022/01/02 01:08:23;;;;;;;17.37;9.33;;;;;;;10.20;81.96;95598.13;5088843;28;20190;-84
2022/01/02 01:10:50;;;;;;;12.17;7.40;;;;;;;10.18;81.97;95600.94;5073762;28;20174;-84
2022/01/02 01:13:16;;;;;;;10.80;7.33;;;;;;;10.45;81.92;95640.63;5073179;28;20190;-83
2022/01/02 01:15:42;;;;;;;10.57;7.60;;;;;;;10.43;81.77;95647.88;5072965;28;20199;-83
2022/01/02 01:18:08;;;;;;;13.63;7.17;;;;;;;9.97;82.40;95603.53;5073043;28;20253;-83
2022/01/02 01:20:38;;;;;;;12.40;8.00;;;;;;;10.16;82.81;95642.38;5072948;28;20257;-84
2022/01/02 01:23:05;;;;;;;13.87;9.17;;;;;;;10.11;82.97;95641.31;5072936;28;20159;-83
2022/01/02 01:25:31;;;;;;;13.93;9.53;;;;;;;9.92;82.73;95589.31;5073190;28;20225;-83
2022/01/02 01:27:56;;;;;;;14.33;8.57;;;;;;;10.18;82.47;95624.59;5072852;28;20176;-83
2022/01/02 01:30:26;;;;;;;14.17;8.93;;;;;;;9.89;82.93;95576.53;5073093;28;20162;-83
2022/01/02 01:32:53;;;;;;;12.60;7.87;;;;;;;10.25;82.55;95642.25;5073050;28;20201;-83
2022/01/02 01:35:19;;;;;;;11.80;8.40;;;;;;;9.59;81.83;95521.47;5072488;28;20225;-84
2022/01/02 01:37:44;;;;;;;12.63;8.50;;;;;;;9.94;82.11;95561.84;5088308;28;20167;-84
2022/01/02 01:40:11;;;;;;;14.17;8.30;;;;;;;10.40;81.64;95632.47;5072311;28;20159;-84
2022/01/02 01:42:41;;;;;;;13.90;8.43;;;;;;;10.05;81.49;95574.47;5054614;28;20220;-84
2022/01/02 01:47:56;;;;;;;12.50;7.47;;;;;;;9.90;81.67;95565.84;5072800;28;20161;-84
2022/01/02 01:50:41;;;;;;;11.33;6.93;;;;;;;10.38;81.25;95637.91;5072878;28;20159;-84
2022/01/02 01:53:08;;;;;;;19.80;12.00;;;;;;;10.14;81.32;95597.00;5072672;28;20169;-84
2022/01/02 01:55:35;;;;;;;11.83;7.87;;;;;;;9.95;80.88;95555.56;5072269;28;20202;-84
2022/01/02 01:58:02;;;;;;;12.77;7.50;;;;;;;10.45;80.72;95640.63;5072526;28;20267;-84
2022/01/02 02:00:28;;;;;;;15.07;8.83;;;;;;;10.31;80.98;95634.41;5072246;28;20650;-84
2022/01/02 02:02:55;;;;;;;12.57;7.67;;;;;;;9.87;81.49;95571.47;5072287;28;20194;-84
2022/01/02 02:05:20;;;;;;;10.63;6.67;;;;;;;9.90;81.50;95555.31;5072546;28;20628;-84
2022/01/02 02:07:46;;;;;;;10.10;6.50;;;;;;;9.93;80.75;95541.00;5072522;28;20175;-84
2022/01/02 02:10:46;;;;;;;8.20;5.87;;;;;;;10.44;80.37;95621.38;5054284;28;20288;-84
2022/01/02 02:13:11;;;;;;;10.70;6.77;;;;;;;10.41;80.41;95618.31;5072232;28;20162;-84
2022/01/02 02:15:37;;;;;;;8.43;6.03;;;;;;;10.30;80.38;95593.31;5072581;28;20190;-84
2022/01/02 02:18:03;;;;;;;8.87;6.43;;;;;;;10.17;80.26;95566.88;5072120;28;20155;-84
2022/01/02 02:20:35;;;;;;;11.33;7.23;;;;;;;10.10;80.07;95556.31;5072023;28;20233;-84
2022/01/02 02:23:01;;;;;;;9.60;6.20;;;;;;;10.21;79.94;95578.66;5072049;28;20143;-84
2022/01/02 02:25:33;;;;;;;9.93;6.60;;;;;;;10.48;80.25;95621.78;5054097;28;20170;-84
2022/01/02 02:28:02;;;;;;;10.23;6.27;;;;;;;10.06;80.53;95559.50;5071959;28;20189;-83
2022/01/02 02:30:29;;;;;;;11.27;7.67;;;;;;;10.47;80.03;95633.31;5072004;28;20213;-83
2022/01/02 02:32:57;;;;;;;14.83;8.10;;;;;;;10.49;79.88;95632.13;5072173;28;20620;-83
2022/01/02 02:35:23;;;;;;;14.43;7.73;;;;;;;9.86;80.40;95530.38;5087371;28;20297;-83
2022/01/02 02:37:49;;;;;;;10.27;7.27;;;;;;;10.02;79.82;95529.34;5072201;28;20158;-84
2022/01/02 02:40:17;;;;;;;10.57;6.80;;;;;;;10.15;79.73;95566.25;5071840;28;20662;-84
2022/01/02 02:42:55;;;;;;;9.00;6.27;;;;;;;10.08;79.76;95558.31;5053916;28;20174;-84
2022/01/02 02:51:12;;;;;;;7.33;5.10;;;;;;;10.24;79.47;95577.47;5071857;28;20161;-84
2022/01/02 02:53:43;;;;;;;8.93;5.50;;;;;;;10.43;79.37;95611.03;5090520;28;20177;-84
2022/01/02 02:56:23;;;;;;;16.50;9.80;;;;;;;10.21;79.59;95587.38;5075996;28;20198;-84
2022/01/02 02:58:50;;;;;;;16.30;9.73;;;;;;;10.44;80.09;95641.63;5076028;28;20641;-84
2022/01/02 03:01:19;;;;;;;18.67;9.87;;;;;;;10.13;79.81;95590.13;5075686;28;20175;-84
2022/01/02 03:03:46;;;;;;;15.10;8.07;;;;;;;10.15;79.74;95596.00;5057754;28;20162;-84
2022/01/02 03:06:12;;;;;;;10.57;7.07;;;;;;;10.19;79.71;95599.94;5076156;28;20166;-84
2022/01/02 03:08:40;;;;;;;9.43;6.47;;;;;;;9.98;79.63;95572.78;5091161;28;20194;-84
2022/01/02 03:11:08;;;;;;;12.27;5.87;;;;;;;10.18;79.20;95590.41;5075504;28;20175;-83
2022/01/02 03:13:34;;;;;;;12.93;7.17;;;;;;;10.48;79.56;95654.19;5075464;28;20163;-83
2022/01/02 03:16:00;;;;;;;12.73;7.13;;;;;;;9.96;79.58;95572.97;5075375;28;20190;-84
2022/01/02 03:18:25;;;;;;;10.33;7.50;;;;;;;10.33;79.25;95618.44;5075348;28;20532;-84
2022/01/02 03:20:51;;;;;;;10.40;6.97;;;;;;;10.50;79.46;95656.66;5075200;28;20236;-83
2022/01/02 03:23:16;;;;;;;10.73;6.60;;;;;;;10.11;79.38;95589.50;5075130;28;20552;-83
2022/01/02 03:25:42;;;;;;;11.03;6.63;;;;;;;10.49;79.54;95655.84;5075212;28;20648;-83
2022/01/02 03:28:07;;;;;;;9.37;6.43;;;;;;;10.47;79.39;95646.47;5075529;28;20158;-83
2022/01/02 03:30:32;;;;;;;8.70;6.00;;;;;;;10.47;79.68;95659.66;5057292;28;20170;-83
2022/01/02 03:32:58;;;;;;;8.83;6.47;;;;;;;10.46;79.92;95661.50;5075667;28;20165;-83
2022/01/02 03:35:23;;;;;;;8.27;5.93;;;;;;;10.08;79.62;95579.34;5074868;28;20194;-83
2022/01/02 03:37:50;;;;;;;9.03;5.33;;;;;;;10.23;79.51;95597.72;5075099;28;20190;-83
2022/01/02 03:40:16;;;;;;;6.93;5.13;;;;;;;10.50;79.51;95654.84;5075256;28;20603;-83
2022/01/02 03:42:41;;;;;;;11.03;6.43;;;;;;;10.23;79.68;95612.69;5074931;28;20202;-84
2022/01/02 03:45:07;;;;;;;8.20;6.13;;;;;;;10.18;79.78;95605.38;5074916;28;20253;-83
2022/01/02 03:47:33;;;;;;;8.83;6.07;;;;;;;10.07;79.05;95590.88;5074799;28;20266;-82
2022/01/02 03:50:03;;;;;;;12.17;7.93;;;;;;;10.48;79.27;95656.84;5074684;28;20586;-82
2022/01/02 03:52:28;;;;;;;11.00;7.07;;;;;;;10.36;79.63;95636.50;5074770;28;20237;-83
2022/01/02 03:54:54;;;;;;;12.40;7.50;;;;;;;10.10;79.92;95602.84;5074924;28;20221;-83
2022/01/02 03:57:20;;;;;;;16.73;8.27;;;;;;;10.34;79.54;95656.91;5074973;28;20173;-84
2022/01/02 03:59:45;;;;;;;11.80;7.17;;;;;;;10.31;79.84;95650.22;5074631;28;20578;-83
2022/01/02 04:02:11;;;;;;;11.73;6.87;;;;;;;10.08;79.80;95595.13;5074610;28;20694;-83
2022/01/02 04:04:37;;;;;;;10.47;6.73;;;;;;;10.10;80.08;95602.84;5074541;28;20203;-83
2022/01/02 04:07:03;;;;;;;10.37;6.47;;;;;;;9.95;80.03;95581.03;5074474;28;20166;-83
2022/01/02 04:09:29;;;;;;;12.03;7.60;;;;;;;10.37;80.34;95664.44;5074751;28;20190;-84
2022/01/02 04:11:54;;;;;;;10.83;6.77;;;;;;;10.33;80.42;95655.28;5074636;28;20640;-83
2022/01/02 04:14:19;;;;;;;13.07;7.17;;;;;;;10.37;80.45;95664.44;5074555;28;20296;-84
2022/01/02 04:16:45;;;;;;;11.13;6.93;;;;;;;10.05;80.46;95627.06;5056339;28;21013;-84
2022/01/02 04:19:10;;;;;;;10.50;6.67;;;;;;;10.34;80.52;95676.16;5073838;28;20218;-83
2022/01/02 04:21:36;;;;;;;10.27;6.00;;;;;;;9.91;80.65;95604.28;5055204;28;20249;-83
2022/01/02 04:24:01;;;;;;;9.43;6.70;;;;;;;10.04;80.50;95620.19;5073364;28;20248;-83
2022/01/02 04:26:30;;;;;;;7.70;5.67;;;;;;;10.13;80.20;95634.84;5073344;28;20217;-83
2022/01/02 04:28:56;;;;;;;9.97;6.57;;;;;;;10.17;80.14;95646.66;5072968;28;20175;-83
2022/01/02 04:31:29;;;;;;;10.20;6.17;;;;;;;10.00;80.21;95613.69;5073292;28;20161;-83
2022/01/02 04:33:54;;;;;;;9.00;6.33;;;;;;;9.99;79.96;95608.59;5072935;28;20300;-83
2022/01/02 04:36:19;;;;;;;9.37;6.13;;;;;;;10.26;80.77;95671.03;5054834;28;20578;-84
2022/01/02 04:38:46;;;;;;;11.30;6.73;;;;;;;9.92;80.31;95611.19;5054923;28;20177;-84
2022/01/02 04:41:13;;;;;;;12.23;8.33;;;;;;;10.33;80.23;95676.34;5072837;28;20169;-83
2022/01/02 04:43:39;;;;;;;10.40;6.73;;;;;;;10.13;80.45;95640.09;5055043;28;20171;-83
2022/01/02 04:46:06;;;;;;;11.43;7.27;;;;;;;9.96;80.05;95617.69;5073258;28;20182;-83
2022/01/02 04:48:32;;;;;;;9.93;7.03;;;;;;;9.74;80.13;95593.19;5073262;28;20571;-84
2022/01/02 04:50:57;;;;;;;10.10;7.13;;;;;;;9.99;80.44;95638.34;5072674;28;20171;-83
2022/01/02 04:53:23;;;;;;;10.67;6.10;;;;;;;10.26;80.69;95693.88;5072938;28;20600;-83
2022/01/02 04:55:49;;;;;;;10.77;6.80;;;;;;;10.01;80.82;95660.03;5073102;28;20190;-84
2022/01/02 04:58:16;;;;;;;12.13;7.27;;;;;;;10.00;80.84;95658.41;5072500;28;20660;-84
2022/01/02 05:00:41;;;;;;;8.53;6.90;;;;;;;9.60;81.23;95609.81;5072507;28;20670;-84
2022/01/02 05:03:07;;;;;;;12.57;7.50;;;;;;;9.78;81.37;95640.94;5072444;28;20174;-83
2022/01/02 05:05:32;;;;;;;11.87;6.57;;;;;;;10.12;81.42;95685.00;5073057;28;20155;-84
2022/01/02 05:07:59;;;;;;;12.03;7.13;;;;;;;9.76;81.38;95638.53;5054414;28;20186;-83
2022/01/02 05:10:24;;;;;;;14.53;8.80;;;;;;;9.95;81.72;95662.56;5072910;28;20228;-84
2022/01/02 05:12:50;;;;;;;12.50;7.37;;;;;;;9.86;81.95;95648.72;5072248;28;20639;-83
2022/01/02 05:15:15;;;;;;;9.53;7.30;;;;;;;10.07;81.88;95682.94;5071270;28;20182;-83
2022/01/02 05:17:41;;;;;;;11.27;7.87;;;;;;;9.62;81.69;95599.94;5072347;28;20162;-83
2022/01/02 05:20:07;;;;;;;11.00;7.60;;;;;;;10.09;81.80;95688.84;5027678;28;1285244;-83
2022/01/02 05:22:32;;;;;;;10.17;7.43;;;;;;;9.65;81.91;95617.16;5073042;28;20170;-83
2022/01/02 05:24:57;;;;;;;10.93;7.37;;;;;;;9.83;82.43;95673.59;5072964;28;20181;-83
2022/01/02 05:27:26;;;;;;;11.03;7.03;;;;;;;9.99;82.25;95684.88;5072950;28;20552;-83
2022/01/02 05:29:51;;;;;;;10.90;7.80;;;;;;;10.02;82.27;95684.53;5072720;28;20170;-83
2022/01/02 05:32:17;;;;;;;11.43;7.70;;;;;;;9.50;82.19;95608.50;5072838;28;20660;-83
2022/01/02 05:34:42;;;;;;;14.37;8.90;;;;;;;9.91;82.63;95693.69;5072796;28;20182;-83
2022/01/02 05:37:11;;;;;;;16.30;10.40;;;;;;;9.84;82.49;95696.28;5055345;28;20194;-83
2022/01/02 05:39:36;;;;;;;18.67;9.50;;;;;;;9.73;82.74;95685.41;5072477;28;20204;-83
2022/01/02 05:42:02;;;;;;;17.20;9.53;;;;;;;9.82;82.83;95700.06;5072921;28;20166;-83
2022/01/02 05:44:28;;;;;;;17.60;10.83;;;;;;;9.42;82.81;95631.28;5072714;28;20171;-83
2022/01/02 05:46:53;;;;;;;15.07;9.07;;;;;;;9.85;82.66;95697.09;5054668;28;20182;-83
2022/01/02 05:49:19;;;;;;;10.93;7.60;;;;;;;9.53;82.72;95645.72;5072590;28;20226;-83
2022/01/02 05:51:44;;;;;;;12.50;7.90;;;;;;;9.62;83.14;95672.72;5072719;28;20170;-84
2022/01/02 05:54:10;;;;;;;10.23;6.97;;;;;;;9.56;83.20;95653.25;5072635;28;20212;-83
2022/01/02 05:56:35;;;;;;;9.83;7.03;;;;;;;9.61;83.26;95658.78;5054508;28;20185;-84
2022/01/02 05:59:00;;;;;;;12.33;6.70;;;;;;;9.77;82.98;95681.41;5072350;28;20246;-83
2022/01/02 06:01:26;;;;;;;12.40;7.57;;;;;;;10.00;82.99;95699.66;5072324;28;20212;-83
2022/01/02 06:03:52;;;;;;;12.50;7.10;;;;;;;10.00;82.95;95705.75;5072055;28;20186;-83
2022/01/02 06:06:17;;;;;;;12.03;8.07;;;;;;;10.04;82.35;95709.63;5071902;28;20177;-83
2022/01/02 06:08:43;;;;;;;18.57;9.70;;;;;;;9.84;83.12;95713.84;5072250;28;20167;-83
2022/01/02 06:11:08;;;;;;;15.37;8.23;;;;;;;9.84;83.70;95713.84;5054248;28;20178;-83
2022/01/02 06:13:34;;;;;;;15.80;9.43;;;;;;;9.71;83.42;95688.22;5054243;28;20701;-83
2022/01/02 06:15:59;;;;;;;24.90;12.80;;;;;;;9.43;82.65;95629.44;5072030;28;20737;-83
2022/01/02 06:18:25;;;;;;;19.70;11.40;;;;;;;9.29;82.62;95604.00;5072366;28;20193;-83
2022/01/02 06:20:52;;;;;;;25.73;11.90;;;;;;;9.86;82.34;95685.53;5053835;28;20280;-83
2022/01/02 06:23:18;;;;;;;18.80;11.00;;;;;;;9.89;82.23;95702.78;5072435;28;20257;-83
2022/01/02 06:25:45;;;;;;;17.33;9.83;;;;;;;10.08;82.01;95734.56;5071827;28;20213;-83
2022/01/02 06:28:10;;;;;;;17.40;9.80;;;;;;;10.10;81.83;95734.38;5054039;28;20166;-82
2022/01/02 06:30:36;;;;;;;17.30;10.13;;;;;;;9.83;81.80;95691.19;5071965;28;20169;-83
2022/01/02 06:33:03;;;;;;;21.60;11.87;;;;;;;10.13;81.65;95741.88;5053803;28;20235;-83
2022/01/02 06:35:33;;;;;;;16.47;10.17;;;;;;;10.11;81.28;95734.19;5071879;28;20186;-83
2022/01/02 06:38:00;;;;;;;16.00;9.93;;;;;;;10.14;81.04;95731.19;5071783;28;20178;-83
2022/01/02 06:40:26;;;;;;;17.13;10.83;;;;;;;10.24;80.81;95744.06;5071564;28;20660;-83
2022/01/02 06:42:52;;;;;;;15.40;9.87;;;;;;;10.30;80.84;95747.75;5070910;28;20661;-83
2022/01/02 06:45:18;;;;;;;16.27;9.37;;;;;;;10.02;80.65;95680.06;5071634;28;20533;-83
2022/01/02 06:47:44;;;;;;;13.20;8.70;;;;;;;10.50;80.41;95743.53;5071055;28;20205;-83
2022/01/02 06:50:14;;;;;;;14.50;8.10;;;;;;;10.52;79.98;95749.41;5071184;28;20197;-83
2022/01/02 06:52:40;;;;;;;14.03;8.67;;;;;;;10.29;79.59;95723.25;5071692;28;20186;-84
2022/01/02 06:55:05;;;;;;;12.67;7.57;;;;;;;10.13;80.00;95686.63;5071689;28;20588;-83
2022/01/02 06:57:31;;;;;;;12.17;7.97;;;;;;;10.16;79.64;95694.16;5072071;28;20158;-83
2022/01/02 06:59:56;;;;;;;14.20;8.60;;;;;;;10.54;80.19;95760.59;5071903;28;20601;-83
2022/01/02 07:02:22;;;;;;;16.20;8.97;;;;;;;10.42;79.82;95717.31;5071959;28;20162;-83
2022/01/02 07:04:47;;;;;;;11.03;6.87;;;;;;;10.28;79.26;95694.53;5053664;28;20630;-83
2022/01/02 07:07:13;;;;;;;13.47;7.43;;;;;;;10.58;79.41;95743.38;5071461;28;20167;-83
2022/01/02 07:09:38;;;;;;;13.27;7.77;;;;;;;10.72;79.12;95758.31;5053516;28;20174;-83
2022/01/02 07:12:04;;;;;;;13.47;8.03;;;;;;;10.69;79.01;95736.81;5071472;28;20178;-85
2022/01/02 07:14:30;;;;;;;11.77;6.77;;;;;;;10.82;79.00;95766.69;5071406;28;20328;-82
2022/01/02 07:16:59;;;;;;;10.67;6.90;;;;;;;10.62;78.57;95725.41;5072038;28;20155;-82
2022/01/02 07:19:25;;;;;;;14.23;7.93;;;;;;;10.56;78.65;95711.97;5071977;28;20206;-82
2022/01/02 07:21:52;;;;;;;13.17;8.17;;;;;;;10.69;78.29;95721.81;5071364;28;20315;-82
2022/01/02 07:24:18;;;;;;;11.57;6.60;;;;;;;11.03;78.15;95772.94;5071376;28;20201;-82
2022/01/02 07:26:43;;;;;;;10.27;5.93;;;;;;;11.02;77.90;95769.50;5071414;28;20170;-83
2022/01/02 07:29:09;;;;;;;12.50;6.07;;;;;;;10.93;78.15;95768.00;5052862;28;20189;-83
2022/01/02 07:31:35;;;;;;;8.77;6.07;;;;;;;10.75;78.09;95731.59;5070913;28;20179;-83
2022/01/02 07:34:00;;;;;;;12.90;7.00;;;;;;;10.79;77.84;95727.59;5071088;28;20182;-83
2022/01/02 07:36:26;;;;;;;10.30;7.23;;;;;;;10.79;77.55;95726.78;5070380;28;20195;-83
2022/01/02 07:38:51;;;;;;;12.27;6.80;;;;;;;10.83;77.45;95739.34;5055006;28;20175;-83
2022/01/02 07:41:16;;;;;;;12.23;7.40;;;;;;;11.05;77.66;95776.22;5074953;28;20240;-83
2022/01/02 07:43:42;;;;;;;9.43;6.57;;;;;;;11.01;77.00;95778.41;5057087;28;20265;-83
2022/01/02 07:46:27;;;;;;;12.77;7.87;;;;;;;10.96;77.56;95789.53;5075341;28;20560;-84
2022/01/02 07:48:52;;;;;;;16.00;8.63;;;;;;;10.59;77.59;95716.06;5071320;28;20257;-83
2022/01/02 07:51:18;;;;;;;14.40;7.87;;;;;;;10.91;77.78;95781.38;5074499;28;20254;-83
2022/01/02 07:53:43;;;;;;;14.30;9.17;;;;;;;10.95;77.64;95780.00;5074011;28;20171;-82
2022/01/02 07:56:10;;;;;;;12.10;8.03;;;;;;;11.00;77.71;95778.59;5073918;28;20240;-82
2022/01/02 07:58:35;;;;;;;15.07;8.80;;;;;;;10.57;77.87;95699.63;5073841;28;20191;-83
2022/01/02 08:01:01;;;;;;;14.40;9.60;;;;;;;10.68;77.64;95732.53;5074154;28;20636;-83
2022/01/02 08:03:26;;;;;;;13.60;9.63;;;;;;;10.67;77.56;95731.72;5074207;28;20179;-82
2022/01/02 08:05:52;;;;;;;17.00;9.77;;;;;;;10.69;77.32;95731.53;5073635;28;20182;-82
2022/01/02 08:08:17;;;;;;;14.57;8.33;;;;;;;10.64;77.54;95726.81;5073340;28;20609;-81
2022/01/02 08:10:42;;;;;;;17.27;9.30;;;;;;;10.65;77.74;95739.00;5073816;28;20174;-83
2022/01/02 08:13:08;;;;;;;18.67;11.77;;;;;;;10.82;77.54;95743.00;5070783;28;20644;-83
2022/01/02 08:15:36;;;;;;;17.23;11.73;;;;;;;11.09;77.52;95783.53;5074023;28;20197;-84
2022/01/02 08:18:01;;;;;;;24.77;13.13;;;;;;;11.02;77.27;95760.78;5075977;28;20174;-83
2022/01/02 08:20:30;;;;;;;16.13;10.47;;;;;;;10.87;77.13;95719.53;5079700;28;20580;-82
2022/01/02 08:22:58;;;;;;;15.70;10.07;;;;;;;11.43;77.26;95789.84;5078104;28;20175;-84
2022/01/02 08:25:24;;;;;;;22.67;11.70;;;;;;;11.11;75.95;95746.47;5073791;28;20205;-84
2022/01/02 08:27:49;;;;;;;20.43;9.70;;;;;;;10.87;76.21;95706.38;5074047;28;20174;-83
2022/01/02 08:30:15;;;;;;;19.17;10.83;;;;;;;11.40;76.04;95763.91;5074030;28;20161;-83
2022/01/02 08:32:41;;;;;;;15.20;10.33;;;;;;;11.57;75.45;95786.31;5073752;28;20240;-84
2022/01/02 08:35:10;;;;;;;17.57;11.43;;;;;;;11.15;75.50;95714.28;5055985;28;20206;-85
2022/01/02 08:37:36;;;;;;;16.37;10.03;;;;;;;11.44;74.46;95757.22;5073193;28;20602;-84
2022/01/02 08:40:01;;;;;;;15.90;7.23;;;;;;;11.40;73.95;95743.63;5073683;28;20227;-83
2022/01/02 08:42:29;;;;;;;13.47;9.20;;;;;;;11.29;74.64;95715.16;5074159;28;20166;-86
2022/01/02 08:45:16;;;;;;;19.37;11.77;;;;;;;11.78;73.59;95788.06;5055703;28;20321;-86
2022/01/02 08:47:41;;;;;;;20.53;11.90;;;;;;;11.47;73.44;95760.28;5071725;28;20186;-84
2022/01/02 08:50:07;;;;;;;16.00;9.33;;;;;;;11.30;73.27;95730.78;5072125;28;20220;-84
2022/01/02 08:52:34;;;;;;;11.33;8.13;;;;;;;11.34;73.18;95729.38;5073559;28;20159;-84
2022/01/02 08:55:00;;;;;;;20.30;10.40;;;;;;;11.78;72.46;95767.78;5055853;28;20202;-82
2022/01/02 08:57:25;;;;;;;20.30;10.20;;;;;;;11.95;72.23;95790.19;5073345;28;20182;-81
2022/01/02 08:59:50;;;;;;;16.73;10.07;;;;;;;11.93;71.87;95797.53;5074077;28;20184;-81
2022/01/02 09:02:16;;;;;;;20.03;10.47;;;;;;;11.99;72.46;95798.53;5074150;28;20182;-81
2022/01/02 09:04:41;;;;;;;15.40;11.17;;;;;;;12.11;71.55;95796.97;5073356;28;20182;-82
2022/01/02 09:07:08;;;;;;;13.23;7.63;;;;;;;12.04;71.19;95798.75;5073210;28;20170;-80
2022/01/02 09:09:36;;;;;;;19.57;11.40;;;;;;;11.99;71.62;95772.97;5073426;28;20636;-82
2022/01/02 09:12:02;;;;;;;15.83;9.13;;;;;;;11.86;70.84;95735.97;5059368;28;20599;-81
2022/01/02 09:14:31;;;;;;;16.57;8.60;;;;;;;12.22;70.89;95780.56;5074847;28;20190;-80
2022/01/02 09:16:58;;;;;;;19.23;10.40;;;;;;;12.21;70.94;95765.72;5072916;28;20241;-81
2022/01/02 09:19:23;;;;;;;17.47;10.47;;;;;;;12.55;71.16;95790.41;5072932;28;20209;-81
2022/01/02 09:21:49;;;;;;;19.57;8.67;;;;;;;12.40;71.10;95721.91;5072818;28;20686;-82
2022/01/02 09:24:14;;;;;;;15.43;10.07;;;;;;;12.96;69.37;95769.97;5074113;28;20572;-82
2022/01/02 09:26:40;;;;;;;17.47;10.13;;;;;;;12.92;68.39;95733.53;5080322;28;20181;-85
2022/01/02 09:29:05;;;;;;;15.53;10.80;;;;;;;13.10;66.24;95745.13;5054470;28;20170;-82
2022/01/02 09:31:31;;;;;;;15.60;9.30;;;;;;;12.91;67.29;95710.78;5072013;28;20179;-81
2022/01/02 09:33:56;;;;;;;14.63;9.23;;;;;;;13.39;68.61;95762.44;5072532;28;20170;-81
2022/01/02 09:36:21;;;;;;;15.17;9.13;;;;;;;13.53;66.36;95760.59;5072320;28;20277;-82
2022/01/02 09:38:47;;;;;;;14.50;8.63;;;;;;;13.69;66.07;95752.19;5072583;28;20182;-81
2022/01/02 09:41:15;;;;;;;14.90;9.70;;;;;;;13.87;64.96;95751.53;5054446;28;20635;-82
2022/01/02 09:43:41;;;;;;;11.80;7.50;;;;;;;13.68;63.78;95699.47;5071758;28;20174;-84
2022/01/02 09:46:07;;;;;;;10.70;6.70;;;;;;;14.04;64.06;95743.94;5072488;28;20972;-82
2022/01/02 09:48:32;;;;;;;8.17;5.27;;;;;;;13.83;63.47;95700.06;5072011;28;20166;-81
2022/01/02 09:50:58;;;;;;;8.27;5.77;;;;;;;14.03;64.05;95692.00;5071609;28;20178;-81
2022/01/02 09:53:24;;;;;;;9.27;6.63;;;;;;;14.23;62.69;95679.47;5071787;28;20546;-82
2022/01/02 09:55:51;;;;;;;8.53;5.80;;;;;;;14.50;61.23;95709.28;5071677;28;20191;-82
2022/01/02 09:58:18;;;;;;;5.60;4.53;;;;;;;14.47;61.64;95685.88;5071465;28;20181;-82
2022/01/02 10:00:46;;;;;;;8.00;4.57;;;;;;;14.98;61.22;95722.81;5071092;28;20175;-83
2022/01/02 10:03:13;;;;;;;6.17;3.57;;;;;;;14.99;59.61;95725.25;5071959;28;20186;-82
2022/01/02 10:05:56;;;;;;;4.60;3.93;;;;;;;15.02;59.13;95724.00;5071733;28;20230;-82
2022/01/02 10:08:36;;;;;;;4.80;3.33;;;;;;;14.61;59.76;95667.03;5069705;28;20713;-85
2022/01/02 10:11:07;;;;;;;8.13;4.67;;;;;;;15.04;60.12;95725.41;5070510;28;20193;-87
2022/01/02 10:14:05;;;;;;;8.63;5.10;;;;;;;14.84;58.88;95705.38;5072756;28;20223;-83
2022/01/02 10:16:33;;;;;;;5.60;4.17;;;;;;;14.70;59.33;95718.72;5056860;28;20271;-80
2022/01/02 10:19:16;;;;;;;6.13;4.50;;;;;;;14.66;60.68;95709.59;5054170;28;20209;-83
2022/01/02 10:21:42;;;;;;;7.57;5.07;;;;;;;14.59;59.60;95676.22;5071923;28;20585;-81
2022/01/02 10:24:26;;;;;;;7.97;4.83;;;;;;;14.56;58.96;95711.09;5071636;28;20166;-82
2022/01/02 10:27:13;;;;;;;6.20;4.40;;;;;;;14.55;60.35;95699.66;5090316;28;20169;-81
2022/01/02 10:29:56;;;;;;;13.40;6.23;;;;;;;14.57;59.60;95697.63;5092099;28;20158;-81
2022/01/02 10:32:33;;;;;;;5.57;4.17;;;;;;;14.57;59.39;95697.63;5075806;28;20269;-81
2022/01/02 10:35:10;;;;;;;9.70;4.73;;;;;;;14.61;58.86;95693.53;5070211;28;20225;-81
2022/01/02 10:37:37;;;;;;;6.40;3.80;;;;;;;14.63;59.30;95688.81;5067870;28;20185;-82
2022/01/02 10:40:06;;;;;;;7.67;4.50;;;;;;;14.60;58.82;95673.34;5069796;28;20175;-81
2022/01/02 10:42:41;;;;;;;8.20;5.97;;;;;;;14.67;59.04;95682.06;5069396;28;20169;-81
2022/01/02 10:45:07;;;;;;;6.50;4.67;;;;;;;14.52;59.07;95655.06;5052029;28;20185;-81
2022/01/02 10:47:33;;;;;;;6.77;4.00;;;;;;;14.66;58.93;95677.78;5071975;28;20249;-81
2022/01/02 10:50:07;;;;;;;7.73;3.77;;;;;;;14.45;58.42;95649.00;5053978;28;20177;-81
2022/01/02 10:52:40;;;;;;;5.30;3.27;;;;;;;14.61;58.89;95668.88;5071734;28;20155;-82
2022/01/02 10:55:19;;;;;;;10.73;3.97;;;;;;;14.54;59.59;95663.59;5087567;28;20629;-81
2022/01/02 10:57:50;;;;;;;6.33;3.90;;;;;;;14.46;59.30;95658.56;5068395;28;20177;-82
2022/01/02 11:00:17;;;;;;;5.33;3.27;;;;;;;14.42;58.32;95661.88;5066756;28;20174;-81
2022/01/02 11:02:45;;;;;;;7.13;5.00;;;;;;;14.35;60.04;95654.75;5071538;28;20155;-81
2022/01/02 11:05:18;;;;;;;5.90;4.13;;;;;;;14.35;59.37;95656.59;5071644;28;20655;-81
2022/01/02 11:08:05;;;;;;;6.27;4.27;;;;;;;14.35;60.16;95654.75;5071980;28;20162;-81
2022/01/02 11:10:37;;;;;;;8.40;4.40;;;;;;;14.14;59.94;95614.53;5070556;28;20660;-81
2022/01/02 11:13:04;;;;;;;5.27;3.30;;;;;;;14.33;60.10;95663.94;5037460;28;20188;-81
2022/01/02 11:15:30;;;;;;;4.53;3.50;;;;;;;14.14;60.05;95623.31;5078436;28;20275;-81
2022/01/02 11:17:56;;;;;;;7.33;4.73;;;;;;;13.96;60.83;95602.84;5075531;28;20687;-81
2022/01/02 11:20:25;;;;;;;7.13;4.23;;;;;;;14.14;60.53;95622.50;5075312;28;20274;-81
2022/01/02 11:23:03;;;;;;;6.70;3.43;;;;;;;14.31;60.55;95645.59;5075361;28;20189;-81
2022/01/02 11:26:13;;;;;;;11.73;6.93;;;;;;;14.35;60.39;95633.56;5075240;28;20161;-81
2022/01/02 11:28:49;;;;;;;18.53;10.00;;;;;;;14.28;60.07;95614.22;5075394;28;20608;-82
2022/01/02 11:31:34;;;;;;;11.77;4.93;;;;;;;14.38;59.93;95616.41;5073891;28;20170;-81
2022/01/02 11:34:00;;;;;;;6.87;3.90;;;;;;;14.34;59.93;95612.59;5073376;28;20253;-81
2022/01/02 11:36:33;;;;;;;3.83;2.83;;;;;;;14.30;59.10;95621.97;5055291;28;20559;-81
2022/01/02 11:39:10;;;;;;;8.00;4.33;;;;;;;14.04;60.37;95595.66;5073140;28;20174;-81